Time;durP1;ratioP1;P1;durP2;ratioP2;P2;SDS_P1;SDS_P2;PMS_P1;PMS_P2;Temp;Humidity;BMP_temperature;BMP_pressure;BME280_temperature;BME280_humidity;BME280_pressure;Samples;Min_cycle;Max_cycle;Signal;HPM_P1;HPM_P2
2023/05/01 00:01:27;;;;;;;2.28;1.30;;;;;;;;;;5094410;28;20206;-39
2023/05/01 00:03:54;;;;;;;3.53;1.30;;;;;;;;;;5094778;28;20203;-39
2023/05/01 00:06:22;;;;;;;1.92;1.15;;;;;;;;;;5094804;28;20252;-38
2023/05/01 00:08:49;;;;;;;2.60;1.38;;;;;;;;;;5094815;28;20214;-38
2023/05/01 00:11:16;;;;;;;2.58;1.10;;;;;;;;;;5086503;28;20570;-39
2023/05/01 00:13:43;;;;;;;3.50;1.45;;;;;;;;;;5074786;28;20257;-39
2023/05/01 00:16:11;;;;;;;2.78;1.08;;;;;;;;;;5089726;28;20210;-38
2023/05/01 00:18:38;;;;;;;2.80;1.42;;;;;;;;;;5094229;28;20706;-39
2023/05/01 00:21:05;;;;;;;3.28;1.30;;;;;;;;;;5088788;28;20199;-39
2023/05/01 00:23:33;;;;;;;2.45;1.00;;;;;;;;;;5078742;28;20218;-39
2023/05/01 00:25:59;;;;;;;2.40;1.15;;;;;;;;;;5081892;28;20194;-38
2023/05/01 00:28:28;;;;;;;1.98;1.20;;;;;;;;;;5094358;28;20210;-38
2023/05/01 00:30:56;;;;;;;2.95;1.20;;;;;;;;;;5093199;28;20283;-38
2023/05/01 00:33:23;;;;;;;4.97;1.50;;;;;;;;;;5094200;28;20206;-39
2023/05/01 00:35:51;;;;;;;4.25;1.35;;;;;;;;;;5094036;28;20213;-38
2023/05/01 00:38:18;;;;;;;2.47;1.35;;;;;;;;;;5093849;28;20226;-38
2023/05/01 00:40:46;;;;;;;2.35;1.23;;;;;;;;;;5094882;28;20226;-38
2023/05/01 00:43:13;;;;;;;2.92;1.08;;;;;;;;;;5093035;28;20206;-39
2023/05/01 00:45:42;;;;;;;5.68;1.63;;;;;;;;;;5094384;28;20207;-38
2023/05/01 00:48:10;;;;;;;2.10;1.30;;;;;;;;;;5094068;28;20206;-38
2023/05/01 00:50:37;;;;;;;2.88;1.40;;;;;;;;;;5092582;28;20214;-39
2023/05/01 00:53:05;;;;;;;6.38;1.42;;;;;;;;;;5092497;28;20252;-39
2023/05/01 00:55:32;;;;;;;3.35;1.33;;;;;;;;;;5092509;28;20206;-39
2023/05/01 00:58:00;;;;;;;1.75;1.25;;;;;;;;;;5093654;28;20230;-38
2023/05/01 01:00:28;;;;;;;2.83;1.40;;;;;;;;;;5073225;28;20710;-39
2023/05/01 01:02:56;;;;;;;3.65;1.77;;;;;;;;;;5072713;28;20214;-39
2023/05/01 01:05:25;;;;;;;4.40;1.67;;;;;;;;;;5083101;28;20207;-39
2023/05/01 01:08:01;;;;;;;2.55;1.30;;;;;;;;;;5072167;28;20265;-39
2023/05/01 01:10:57;;;;;;;3.13;1.33;;;;;;;;;;5068642;28;20231;-39
2023/05/01 01:13:37;;;;;;;1.65;1.30;;;;;;;;;;5071088;28;20207;-38
2023/05/01 01:16:13;;;;;;;2.42;1.55;;;;;;;;;;5072447;28;20190;-38
2023/05/01 01:18:49;;;;;;;2.40;1.30;;;;;;;;;;5075008;28;20222;-39
2023/05/01 01:21:26;;;;;;;2.20;1.48;;;;;;;;;;5080824;28;20210;-38
2023/05/01 01:24:09;;;;;;;6.53;1.63;;;;;;;;;;5109871;28;20205;-38
2023/05/01 01:26:44;;;;;;;1.50;1.30;;;;;;;;;;5093285;28;20558;-39
2023/05/01 01:29:29;;;;;;;4.35;1.50;;;;;;;;;;5093738;28;20198;-39
2023/05/01 01:32:10;;;;;;;2.42;1.50;;;;;;;;;;5092548;28;20240;-39
2023/05/01 01:34:47;;;;;;;2.65;1.20;;;;;;;;;;5092174;28;20592;-38
2023/05/01 01:37:29;;;;;;;2.10;1.00;;;;;;;;;;5075552;28;20651;-38
2023/05/01 01:40:07;;;;;;;2.70;1.30;;;;;;;;;;5075382;28;20234;-38
2023/05/01 01:42:39;;;;;;;2.38;1.30;;;;;;;;;;5093364;28;20268;-38
2023/05/01 01:45:25;;;;;;;2.90;1.35;;;;;;;;;;5091550;28;20203;-39
2023/05/01 01:47:52;;;;;;;1.85;0.90;;;;;;;;;;5073991;28;20660;-40
2023/05/01 01:50:21;;;;;;;2.58;1.00;;;;;;;;;;5077150;28;20594;-39
2023/05/01 01:52:49;;;;;;;1.58;0.98;;;;;;;;;;5080424;28;20209;-38
2023/05/01 01:55:20;;;;;;;1.88;1.20;;;;;;;;;;5085850;28;20244;-38
2023/05/01 01:57:49;;;;;;;3.50;1.20;;;;;;;;;;5060078;28;20225;-38
2023/05/01 02:00:18;;;;;;;3.05;1.30;;;;;;;;;;5075864;28;20214;-38
2023/05/01 02:02:48;;;;;;;1.40;1.10;;;;;;;;;;5059465;28;20207;-38
2023/05/01 02:05:16;;;;;;;3.17;1.13;;;;;;;;;;5075419;28;20200;-38
2023/05/01 02:07:46;;;;;;;2.58;1.40;;;;;;;;;;5075345;28;20770;-38
2023/05/01 02:10:14;;;;;;;1.70;1.30;;;;;;;;;;5058835;28;20230;-38
2023/05/01 02:12:43;;;;;;;2.10;1.20;;;;;;;;;;5059398;28;20215;-38
2023/05/01 02:15:12;;;;;;;2.42;1.27;;;;;;;;;;5075274;28;20204;-38
2023/05/01 02:17:40;;;;;;;3.13;1.45;;;;;;;;;;5058919;28;20207;-38
2023/05/01 02:20:09;;;;;;;4.00;1.45;;;;;;;;;;5075236;28;20195;-38
2023/05/01 02:22:38;;;;;;;1.63;1.20;;;;;;;;;;5058614;28;20200;-38
2023/05/01 02:25:07;;;;;;;2.33;1.27;;;;;;;;;;5075382;28;20690;-40
2023/05/01 02:27:38;;;;;;;2.78;1.30;;;;;;;;;;5058745;28;20203;-38
2023/05/01 02:30:06;;;;;;;2.45;1.23;;;;;;;;;;5058461;28;20612;-38
2023/05/01 02:32:34;;;;;;;3.13;1.38;;;;;;;;;;5076017;28;20211;-38
2023/05/01 02:35:01;;;;;;;4.63;1.33;;;;;;;;;;5076142;28;20203;-38
2023/05/01 02:37:29;;;;;;;1.85;1.25;;;;;;;;;;5091564;28;20210;-38
2023/05/01 02:39:57;;;;;;;1.63;1.30;;;;;;;;;;5074625;28;20297;-38
2023/05/01 02:42:25;;;;;;;2.50;1.25;;;;;;;;;;5074658;28;20294;-38
2023/05/01 02:44:57;;;;;;;3.63;1.45;;;;;;;;;;5074688;28;20206;-39
2023/05/01 02:47:26;;;;;;;2.38;1.20;;;;;;;;;;5057850;28;20206;-38
2023/05/01 02:49:55;;;;;;;1.95;1.45;;;;;;;;;;5108170;28;20257;-38
2023/05/01 02:52:22;;;;;;;2.75;1.40;;;;;;;;;;5074330;28;20286;-39
2023/05/01 02:54:59;;;;;;;2.40;1.40;;;;;;;;;;5074312;28;20221;-38
2023/05/01 02:57:26;;;;;;;2.17;1.63;;;;;;;;;;5075723;28;20203;-38
2023/05/01 02:59:55;;;;;;;3.15;1.23;;;;;;;;;;5057703;28;20234;-38
2023/05/01 03:02:22;;;;;;;2.95;1.70;;;;;;;;;;5075354;28;20205;-39
2023/05/01 03:04:50;;;;;;;3.80;1.20;;;;;;;;;;5075573;28;20550;-38
2023/05/01 03:07:17;;;;;;;1.30;1.20;;;;;;;;;;5074073;28;20671;-38
2023/05/01 03:09:45;;;;;;;2.53;1.30;;;;;;;;;;5075190;28;20636;-38
2023/05/01 03:12:12;;;;;;;4.05;1.70;;;;;;;;;;5075417;28;20203;-38
2023/05/01 03:14:40;;;;;;;3.53;1.67;;;;;;;;;;5075357;28;20208;-38
2023/05/01 03:17:07;;;;;;;1.75;1.25;;;;;;;;;;5075373;28;20211;-38
2023/05/01 03:19:36;;;;;;;2.53;1.27;;;;;;;;;;5083662;28;20223;-38
2023/05/01 03:22:03;;;;;;;2.95;1.40;;;;;;;;;;5110308;28;20207;-38
2023/05/01 03:24:30;;;;;;;3.38;1.42;;;;;;;;;;5093963;28;20203;-38
2023/05/01 03:26:57;;;;;;;2.83;1.42;;;;;;;;;;5094005;28;20289;-38
2023/05/01 03:29:25;;;;;;;2.10;1.10;;;;;;;;;;5094941;28;20667;-38
2023/05/01 03:31:52;;;;;;;2.67;1.42;;;;;;;;;;5094246;28;20209;-38
2023/05/01 03:34:20;;;;;;;1.38;1.08;;;;;;;;;;5095373;28;20210;-38
2023/05/01 03:36:47;;;;;;;1.48;1.38;;;;;;;;;;5095065;28;20206;-38
2023/05/01 03:39:14;;;;;;;2.33;1.63;;;;;;;;;;5093750;28;20316;-38
2023/05/01 03:42:01;;;;;;;1.77;1.35;;;;;;;;;;5090487;28;20566;-38
2023/05/01 03:44:33;;;;;;;4.68;1.70;;;;;;;;;;5095311;28;20199;-38
2023/05/01 03:47:00;;;;;;;2.40;1.27;;;;;;;;;;5093742;28;20656;-38
2023/05/01 03:49:28;;;;;;;2.05;1.40;;;;;;;;;;5089930;28;20214;-38
2023/05/01 03:51:55;;;;;;;2.72;1.50;;;;;;;;;;5082059;28;20199;-39
2023/05/01 03:54:23;;;;;;;2.38;1.42;;;;;;;;;;5081492;28;20249;-39
2023/05/01 03:57:00;;;;;;;3.22;1.60;;;;;;;;;;5112575;27;20205;-38
2023/05/01 03:59:27;;;;;;;3.05;1.45;;;;;;;;;;5076900;28;20750;-38
2023/05/01 04:01:54;;;;;;;3.60;1.42;;;;;;;;;;5094861;28;20206;-38
2023/05/01 04:04:23;;;;;;;1.55;1.10;;;;;;;;;;5093507;28;20206;-38
2023/05/01 04:06:55;;;;;;;2.80;1.20;;;;;;;;;;5093251;28;20293;-38
2023/05/01 04:09:22;;;;;;;1.60;1.10;;;;;;;;;;5093640;28;20214;-38
2023/05/01 04:11:49;;;;;;;3.80;1.65;;;;;;;;;;5092624;28;20553;-38
2023/05/01 04:14:16;;;;;;;1.23;1.00;;;;;;;;;;5094458;28;20202;-38
2023/05/01 04:16:44;;;;;;;3.97;1.15;;;;;;;;;;5093378;28;20285;-38
2023/05/01 04:19:11;;;;;;;2.63;1.20;;;;;;;;;;5093396;28;20237;-38
2023/05/01 04:21:42;;;;;;;2.30;1.30;;;;;;;;;;5093577;28;20206;-38
2023/05/01 04:24:10;;;;;;;1.48;0.93;;;;;;;;;;5094537;28;20554;-39
2023/05/01 04:26:37;;;;;;;2.67;1.30;;;;;;;;;;5093246;28;20206;-38
2023/05/01 04:29:06;;;;;;;3.67;1.35;;;;;;;;;;5093116;28;20217;-38
2023/05/01 04:31:33;;;;;;;1.70;1.30;;;;;;;;;;5093989;28;20202;-38
2023/05/01 04:34:01;;;;;;;4.63;1.50;;;;;;;;;;5092922;28;20206;-39
2023/05/01 04:36:28;;;;;;;2.95;1.50;;;;;;;;;;5094203;28;20198;-38
2023/05/01 04:38:56;;;;;;;2.58;1.38;;;;;;;;;;5092526;28;20223;-39
2023/05/01 04:41:23;;;;;;;2.30;1.35;;;;;;;;;;5092848;28;20252;-38
2023/05/01 04:43:51;;;;;;;2.40;1.58;;;;;;;;;;5092746;28;20561;-38
2023/05/01 04:46:18;;;;;;;1.55;1.30;;;;;;;;;;5092622;28;20229;-38
2023/05/01 04:48:45;;;;;;;3.80;1.38;;;;;;;;;;5090481;28;20209;-38
2023/05/01 04:51:12;;;;;;;2.42;1.30;;;;;;;;;;5092451;28;20255;-38
2023/05/01 04:53:40;;;;;;;2.60;1.38;;;;;;;;;;5092005;28;20671;-38
2023/05/01 04:56:16;;;;;;;1.65;1.13;;;;;;;;;;5092440;28;20202;-38
2023/05/01 04:58:46;;;;;;;2.35;1.40;;;;;;;;;;5092377;28;20273;-38
2023/05/01 05:01:16;;;;;;;2.17;1.30;;;;;;;;;;5092517;28;20228;-39
2023/05/01 05:03:44;;;;;;;4.07;1.27;;;;;;;;;;5094041;28;20214;-38
2023/05/01 05:06:15;;;;;;;2.33;1.45;;;;;;;;;;5092213;28;20195;-39
2023/05/01 05:08:43;;;;;;;2.20;1.30;;;;;;;;;;5093988;28;20203;-38
2023/05/01 05:11:10;;;;;;;1.48;1.00;;;;;;;;;;5092281;28;20205;-38
2023/05/01 05:13:56;;;;;;;4.22;1.60;;;;;;;;;;5078259;28;20203;-38
2023/05/01 05:16:23;;;;;;;2.75;1.45;;;;;;;;;;5072353;28;20203;-38
2023/05/01 05:18:51;;;;;;;4.40;1.55;;;;;;;;;;5091752;28;20697;-38
2023/05/01 05:21:18;;;;;;;2.80;1.40;;;;;;;;;;5088315;28;20223;-39
2023/05/01 05:23:49;;;;;;;2.92;1.40;;;;;;;;;;5085747;28;20207;-38
2023/05/01 05:26:17;;;;;;;2.55;1.15;;;;;;;;;;5092615;28;20230;-40
2023/05/01 05:28:44;;;;;;;2.00;0.85;;;;;;;;;;5085407;28;20534;-38
2023/05/01 05:31:11;;;;;;;3.90;1.52;;;;;;;;;;5080292;28;20705;-38
2023/05/01 05:33:39;;;;;;;2.20;1.33;;;;;;;;;;5089082;28;20195;-38
2023/05/01 05:36:06;;;;;;;1.83;1.35;;;;;;;;;;5095101;28;20236;-39
2023/05/01 05:38:40;;;;;;;1.52;0.80;;;;;;;;;;5094720;28;20244;-38
2023/05/01 05:41:10;;;;;;;1.50;1.20;;;;;;;;;;5094622;28;20222;-39
2023/05/01 05:43:38;;;;;;;1.13;0.70;;;;;;;;;;5094978;28;20233;-39
2023/05/01 05:46:07;;;;;;;2.88;0.85;;;;;;;;;;5094531;28;20197;-39
2023/05/01 05:48:36;;;;;;;1.55;0.98;;;;;;;;;;5093393;28;20194;-41
2023/05/01 05:51:03;;;;;;;0.80;0.70;;;;;;;;;;5091635;28;20191;-39
2023/05/01 05:53:31;;;;;;;0.90;0.80;;;;;;;;;;5094735;28;20202;-38
2023/05/01 05:55:58;;;;;;;1.73;0.93;;;;;;;;;;5094857;28;20635;-38
2023/05/01 05:58:26;;;;;;;1.42;1.02;;;;;;;;;;5094808;28;20186;-39
2023/05/01 06:00:54;;;;;;;1.23;0.85;;;;;;;;;;5094959;28;20215;-38
2023/05/01 06:03:22;;;;;;;1.58;0.80;;;;;;;;;;5089889;28;20229;-39
2023/05/01 06:05:53;;;;;;;0.95;0.80;;;;;;;;;;5085891;28;20227;-39
2023/05/01 06:08:21;;;;;;;1.92;0.75;;;;;;;;;;5094339;28;20230;-38
2023/05/01 06:10:48;;;;;;;1.73;1.00;;;;;;;;;;5095807;28;20225;-39
2023/05/01 06:13:15;;;;;;;0.98;0.68;;;;;;;;;;5081052;28;20231;-39
2023/05/01 06:15:45;;;;;;;0.90;0.70;;;;;;;;;;5083513;28;20314;-39
2023/05/01 06:18:12;;;;;;;2.20;0.73;;;;;;;;;;5093328;28;20582;-39
2023/05/01 06:20:39;;;;;;;1.33;0.70;;;;;;;;;;5094884;28;20235;-39
2023/05/01 06:23:08;;;;;;;0.95;0.65;;;;;;;;;;5094949;28;20221;-39
2023/05/01 06:25:50;;;;;;;1.92;1.00;;;;;;;;;;5093210;28;20613;-39
2023/05/01 06:28:17;;;;;;;1.33;0.60;;;;;;;;;;5094100;28;20628;-38
2023/05/01 06:30:45;;;;;;;1.58;0.90;;;;;;;;;;5091902;28;20283;-40
2023/05/01 06:33:14;;;;;;;2.83;0.82;;;;;;;;;;5093341;28;20284;-39
2023/05/01 06:35:44;;;;;;;0.80;0.77;;;;;;;;;;5094911;28;20309;-39
2023/05/01 06:38:11;;;;;;;1.48;1.05;;;;;;;;;;5095982;28;20252;-38
2023/05/01 06:40:40;;;;;;;2.63;0.85;;;;;;;;;;5094208;28;20252;-39
2023/05/01 06:43:07;;;;;;;1.80;0.85;;;;;;;;;;5095662;28;20230;-38
2023/05/01 06:45:34;;;;;;;0.75;0.63;;;;;;;;;;5094491;28;20280;-39
2023/05/01 06:48:02;;;;;;;1.25;0.80;;;;;;;;;;5093035;28;20231;-39
2023/05/01 06:50:29;;;;;;;0.93;0.70;;;;;;;;;;5094173;28;20288;-39
2023/05/01 06:52:59;;;;;;;2.85;0.88;;;;;;;;;;5093737;27;20616;-39
2023/05/01 06:55:29;;;;;;;1.48;0.80;;;;;;;;;;5093284;28;20280;-38
2023/05/01 06:57:58;;;;;;;0.60;0.60;;;;;;;;;;5095065;28;20211;-39
2023/05/01 07:00:28;;;;;;;1.00;0.60;;;;;;;;;;5094872;28;20261;-38
2023/05/01 07:02:55;;;;;;;1.30;1.00;;;;;;;;;;5086138;28;20219;-39
2023/05/01 07:05:23;;;;;;;0.93;0.65;;;;;;;;;;5075456;28;20243;-39
2023/05/01 07:07:50;;;;;;;0.77;0.70;;;;;;;;;;5083507;28;20230;-39
2023/05/01 07:10:28;;;;;;;2.05;0.75;;;;;;;;;;5090451;28;20223;-39
2023/05/01 07:12:55;;;;;;;1.85;0.70;;;;;;;;;;5085581;28;20282;-39
2023/05/01 07:15:22;;;;;;;0.70;0.70;;;;;;;;;;5088186;28;20216;-43
2023/05/01 07:17:50;;;;;;;0.90;0.50;;;;;;;;;;5091208;28;20320;-43
2023/05/01 07:20:17;;;;;;;0.80;0.70;;;;;;;;;;5086283;28;20312;-41
2023/05/01 07:22:44;;;;;;;1.73;0.98;;;;;;;;;;5094786;28;20546;-42
2023/05/01 07:25:11;;;;;;;0.50;0.50;;;;;;;;;;5087561;28;20223;-42
2023/05/01 07:27:38;;;;;;;0.90;0.80;;;;;;;;;;5074375;28;20724;-43
2023/05/01 07:30:05;;;;;;;0.68;0.55;;;;;;;;;;5074409;28;20707;-44
2023/05/01 07:32:33;;;;;;;0.82;0.70;;;;;;;;;;5074497;28;20238;-42
2023/05/01 07:35:00;;;;;;;1.10;0.65;;;;;;;;;;5074136;28;20386;-42
2023/05/01 07:37:27;;;;;;;0.70;0.65;;;;;;;;;;5086130;28;20211;-42
2023/05/01 07:39:55;;;;;;;1.25;0.63;;;;;;;;;;5092645;28;20234;-42
2023/05/01 07:42:23;;;;;;;0.80;0.70;;;;;;;;;;5075565;28;20364;-42
2023/05/01 07:44:50;;;;;;;1.50;0.80;;;;;;;;;;5091116;28;20226;-42
2023/05/01 07:47:18;;;;;;;0.70;0.57;;;;;;;;;;5089724;28;20222;-41
2023/05/01 07:49:45;;;;;;;1.10;0.75;;;;;;;;;;5088575;28;20234;-45
2023/05/01 07:52:14;;;;;;;1.13;0.70;;;;;;;;;;5080389;28;20224;-45
2023/05/01 07:54:41;;;;;;;0.93;0.68;;;;;;;;;;5078928;28;20335;-45
2023/05/01 07:57:08;;;;;;;2.58;0.60;;;;;;;;;;5082591;28;20253;-45
2023/05/01 07:59:35;;;;;;;2.25;1.05;;;;;;;;;;5076840;28;20225;-45
2023/05/01 08:02:02;;;;;;;1.13;0.70;;;;;;;;;;5094148;28;20226;-45
2023/05/01 08:04:29;;;;;;;2.60;1.00;;;;;;;;;;5094079;28;20283;-45
2023/05/01 08:06:57;;;;;;;2.20;0.75;;;;;;;;;;5093756;28;20741;-45
2023/05/01 08:09:24;;;;;;;3.53;0.90;;;;;;;;;;5094001;28;20214;-44
2023/05/01 08:11:51;;;;;;;0.95;0.70;;;;;;;;;;5093347;28;20230;-45
2023/05/01 08:14:18;;;;;;;0.98;0.63;;;;;;;;;;5093081;28;20706;-44
2023/05/01 08:16:46;;;;;;;1.60;0.85;;;;;;;;;;5093810;28;20241;-44
2023/05/01 08:19:13;;;;;;;1.27;1.05;;;;;;;;;;5093516;28;20210;-44
2023/05/01 08:21:40;;;;;;;2.15;0.70;;;;;;;;;;5093346;28;20226;-45
2023/05/01 08:24:08;;;;;;;0.88;0.70;;;;;;;;;;5093836;28;20230;-45
2023/05/01 08:26:36;;;;;;;0.55;0.55;;;;;;;;;;5091580;28;20283;-44
2023/05/01 08:29:03;;;;;;;0.93;0.70;;;;;;;;;;5083904;28;20219;-45
2023/05/01 08:31:30;;;;;;;2.58;0.80;;;;;;;;;;5080544;28;20235;-45
2023/05/01 08:33:57;;;;;;;1.88;0.68;;;;;;;;;;5083329;28;20279;-44
2023/05/01 08:36:26;;;;;;;1.90;0.88;;;;;;;;;;5091662;28;20722;-44
2023/05/01 08:38:53;;;;;;;1.27;0.80;;;;;;;;;;5085526;28;20298;-44
2023/05/01 08:41:21;;;;;;;1.00;0.77;;;;;;;;;;5090547;28;20703;-44
2023/05/01 08:43:49;;;;;;;1.52;0.80;;;;;;;;;;5087634;28;20227;-46
2023/05/01 08:46:40;;;;;;;1.42;0.95;;;;;;;;;;5082089;28;20694;-44
2023/05/01 08:49:08;;;;;;;0.80;0.73;;;;;;;;;;5093010;28;20603;-45
2023/05/01 08:51:37;;;;;;;2.55;1.00;;;;;;;;;;5091429;28;20230;-45
2023/05/01 08:54:05;;;;;;;1.15;0.77;;;;;;;;;;5091239;28;20210;-45
2023/05/01 08:56:34;;;;;;;1.70;0.98;;;;;;;;;;5092383;28;20211;-44
2023/05/01 08:59:03;;;;;;;1.38;1.00;;;;;;;;;;5091702;28;20214;-44
2023/05/01 09:01:32;;;;;;;2.10;0.80;;;;;;;;;;5090666;28;20238;-45
2023/05/01 09:04:01;;;;;;;2.35;0.90;;;;;;;;;;5092871;28;20226;-45
2023/05/01 09:06:31;;;;;;;1.17;0.70;;;;;;;;;;5091227;28;20234;-44
2023/05/01 09:08:58;;;;;;;0.98;0.77;;;;;;;;;;5081369;28;20219;-45
2023/05/01 09:11:26;;;;;;;0.88;0.73;;;;;;;;;;5089833;28;20588;-44
2023/05/01 09:13:53;;;;;;;1.65;0.75;;;;;;;;;;5091578;28;20758;-45
2023/05/01 09:16:21;;;;;;;1.73;0.82;;;;;;;;;;5091099;28;20707;-45
2023/05/01 09:18:48;;;;;;;1.92;0.80;;;;;;;;;;5092250;28;20306;-45
2023/05/01 09:21:15;;;;;;;1.35;0.90;;;;;;;;;;5092649;28;20247;-44
2023/05/01 09:23:42;;;;;;;3.28;1.25;;;;;;;;;;5092881;28;20219;-45
2023/05/01 09:26:09;;;;;;;0.93;0.60;;;;;;;;;;5092542;28;20230;-44
2023/05/01 09:28:46;;;;;;;2.45;1.10;;;;;;;;;;5087658;28;20226;-45
2023/05/01 09:31:28;;;;;;;1.58;0.90;;;;;;;;;;5085896;28;20226;-44
2023/05/01 09:33:57;;;;;;;0.65;0.65;;;;;;;;;;5092337;28;20272;-44
2023/05/01 09:36:25;;;;;;;1.67;1.08;;;;;;;;;;5092516;28;20622;-44
2023/05/01 09:38:53;;;;;;;3.67;0.80;;;;;;;;;;5091384;28;20276;-44
2023/05/01 09:41:21;;;;;;;1.15;0.80;;;;;;;;;;5084329;28;20239;-44
2023/05/01 09:43:57;;;;;;;1.17;0.88;;;;;;;;;;5089706;28;20253;-44
2023/05/01 09:46:25;;;;;;;1.33;0.80;;;;;;;;;;5092021;28;20248;-44
2023/05/01 09:48:54;;;;;;;1.00;0.70;;;;;;;;;;5092283;28;20234;-44
2023/05/01 09:51:33;;;;;;;1.98;1.00;;;;;;;;;;5092168;28;20280;-45
2023/05/01 09:54:03;;;;;;;1.52;0.80;;;;;;;;;;5091209;28;20230;-44
2023/05/01 09:56:32;;;;;;;1.77;1.17;;;;;;;;;;5092591;28;20624;-44
2023/05/01 09:59:18;;;;;;;1.35;0.98;;;;;;;;;;5092443;28;20223;-45
2023/05/01 10:01:47;;;;;;;1.60;0.80;;;;;;;;;;5091858;28;20234;-45
2023/05/01 10:04:14;;;;;;;1.25;0.63;;;;;;;;;;5092547;28;20226;-44
2023/05/01 10:06:42;;;;;;;1.58;1.02;;;;;;;;;;5091869;28;20566;-44
2023/05/01 10:09:16;;;;;;;1.58;0.98;;;;;;;;;;5093727;28;20264;-44
2023/05/01 10:11:52;;;;;;;1.35;0.88;;;;;;;;;;5094481;28;20221;-44
2023/05/01 10:14:20;;;;;;;2.42;1.27;;;;;;;;;;5096120;28;20221;-44
2023/05/01 10:16:48;;;;;;;2.67;1.30;;;;;;;;;;5095719;28;20219;-45
2023/05/01 10:19:16;;;;;;;3.85;1.30;;;;;;;;;;5096261;28;20347;-44
2023/05/01 10:21:43;;;;;;;1.33;1.00;;;;;;;;;;5091045;28;20222;-44
2023/05/01 10:24:10;;;;;;;2.15;1.13;;;;;;;;;;5092803;28;20223;-42
2023/05/01 10:26:38;;;;;;;1.52;0.90;;;;;;;;;;5087794;28;20233;-43
2023/05/01 10:29:05;;;;;;;1.80;1.30;;;;;;;;;;5094496;28;20296;-42
2023/05/01 10:31:32;;;;;;;1.92;0.98;;;;;;;;;;5094767;28;20223;-41
2023/05/01 10:34:02;;;;;;;2.08;1.05;;;;;;;;;;5092784;28;20535;-41
2023/05/01 10:36:36;;;;;;;2.53;1.10;;;;;;;;;;5094981;28;20190;-41
2023/05/01 10:39:04;;;;;;;1.38;1.00;;;;;;;;;;5092606;28;20628;-41
2023/05/01 10:42:00;;;;;;;1.10;1.00;;;;;;;;;;5095097;28;20246;-41
2023/05/01 10:44:28;;;;;;;1.17;0.90;;;;;;;;;;5093563;28;20191;-40
2023/05/01 10:46:55;;;;;;;1.90;1.30;;;;;;;;;;5095082;28;20194;-41
2023/05/01 10:49:22;;;;;;;1.92;1.00;;;;;;;;;;5095297;28;20195;-42
2023/05/01 10:51:59;;;;;;;2.42;1.08;;;;;;;;;;5095023;28;20203;-41
2023/05/01 10:54:26;;;;;;;3.17;1.33;;;;;;;;;;5095185;28;20278;-42
2023/05/01 10:57:00;;;;;;;1.55;1.02;;;;;;;;;;5094660;28;20206;-41
2023/05/01 10:59:57;;;;;;;1.55;0.77;;;;;;;;;;5092103;28;20195;-42
2023/05/01 11:02:25;;;;;;;2.08;1.30;;;;;;;;;;5089620;28;20187;-42
2023/05/01 11:04:54;;;;;;;1.52;0.88;;;;;;;;;;5089506;28;20203;-42
2023/05/01 11:07:22;;;;;;;1.10;1.00;;;;;;;;;;5094041;28;20564;-41
2023/05/01 11:09:54;;;;;;;1.75;0.98;;;;;;;;;;5095698;28;20202;-42
2023/05/01 11:12:48;;;;;;;2.88;1.27;;;;;;;;;;5094622;28;20190;-42
2023/05/01 11:15:25;;;;;;;1.60;0.98;;;;;;;;;;5093199;28;20274;-42
2023/05/01 11:17:54;;;;;;;0.88;0.85;;;;;;;;;;5092166;28;20198;-42
2023/05/01 11:20:24;;;;;;;3.05;1.10;;;;;;;;;;5092203;28;20245;-42
2023/05/01 11:22:53;;;;;;;1.45;1.10;;;;;;;;;;5095831;28;20187;-42
2023/05/01 11:25:22;;;;;;;2.03;1.23;;;;;;;;;;5095639;28;20203;-40
2023/05/01 11:27:51;;;;;;;3.95;1.30;;;;;;;;;;5095032;28;20697;-42
2023/05/01 11:30:19;;;;;;;1.40;1.15;;;;;;;;;;5087123;28;20729;-40
2023/05/01 11:32:48;;;;;;;1.70;1.25;;;;;;;;;;5088205;28;20703;-41
2023/05/01 11:35:22;;;;;;;1.83;1.10;;;;;;;;;;5091875;28;20268;-40
2023/05/01 11:37:50;;;;;;;1.30;0.90;;;;;;;;;;5091617;28;20218;-41
2023/05/01 11:40:27;;;;;;;1.35;1.00;;;;;;;;;;5090271;28;20631;-41
2023/05/01 11:43:05;;;;;;;3.00;0.88;;;;;;;;;;5087781;28;20233;-40
2023/05/01 11:45:34;;;;;;;2.10;0.90;;;;;;;;;;5090702;28;20230;-41
2023/05/01 11:48:02;;;;;;;1.77;1.05;;;;;;;;;;5092281;28;20230;-41
2023/05/01 11:50:35;;;;;;;1.23;0.88;;;;;;;;;;5093623;28;20816;-40
2023/05/01 11:53:06;;;;;;;1.45;1.17;;;;;;;;;;5093786;28;20227;-40
2023/05/01 11:55:34;;;;;;;1.70;1.27;;;;;;;;;;5075822;28;20714;-40
2023/05/01 11:58:01;;;;;;;1.77;1.17;;;;;;;;;;5088685;28;20218;-40
2023/05/01 12:00:37;;;;;;;1.55;1.17;;;;;;;;;;5087415;28;20226;-39
2023/05/01 12:03:11;;;;;;;2.45;1.10;;;;;;;;;;5092678;28;20613;-40
2023/05/01 12:05:43;;;;;;;2.08;1.25;;;;;;;;;;5092063;28;20225;-39
2023/05/01 12:08:20;;;;;;;1.05;0.70;;;;;;;;;;5090270;28;20211;-40
2023/05/01 12:10:56;;;;;;;2.20;1.00;;;;;;;;;;5089594;28;20218;-41
2023/05/01 12:13:25;;;;;;;1.95;0.90;;;;;;;;;;5086213;28;20237;-40
2023/05/01 12:15:54;;;;;;;1.27;0.85;;;;;;;;;;5089732;28;20221;-40
2023/05/01 12:18:21;;;;;;;2.03;1.27;;;;;;;;;;5089119;28;20719;-42
2023/05/01 12:20:55;;;;;;;1.83;1.08;;;;;;;;;;5089617;28;20215;-40
2023/05/01 12:23:30;;;;;;;3.08;0.90;;;;;;;;;;5092722;28;20260;-41
2023/05/01 12:25:57;;;;;;;1.25;1.08;;;;;;;;;;5088792;28;20218;-40
2023/05/01 12:28:26;;;;;;;1.10;0.82;;;;;;;;;;5092514;28;20583;-40
2023/05/01 12:31:00;;;;;;;1.30;0.90;;;;;;;;;;5091794;28;20223;-40
2023/05/01 12:33:31;;;;;;;2.03;1.20;;;;;;;;;;5086752;28;20222;-41
2023/05/01 12:36:09;;;;;;;3.70;1.40;;;;;;;;;;5075277;28;20227;-41
2023/05/01 12:38:37;;;;;;;1.67;1.13;;;;;;;;;;5082248;28;20659;-40
2023/05/01 12:41:07;;;;;;;1.23;1.00;;;;;;;;;;5092380;28;20230;-41
2023/05/01 12:43:37;;;;;;;2.33;1.00;;;;;;;;;;5092332;28;20218;-41
2023/05/01 12:46:05;;;;;;;1.92;1.00;;;;;;;;;;5092296;28;20267;-41
2023/05/01 12:48:37;;;;;;;1.95;1.33;;;;;;;;;;5092837;28;20283;-41
2023/05/01 12:51:05;;;;;;;0.90;0.82;;;;;;;;;;5092022;28;20314;-40
2023/05/01 12:53:32;;;;;;;1.27;0.93;;;;;;;;;;5093274;28;20284;-41
2023/05/01 12:56:02;;;;;;;1.20;0.85;;;;;;;;;;5092882;28;20223;-41
2023/05/01 12:58:36;;;;;;;1.05;0.93;;;;;;;;;;5092888;28;20231;-40
2023/05/01 13:01:05;;;;;;;1.92;0.80;;;;;;;;;;5092704;28;20683;-42
2023/05/01 13:03:32;;;;;;;1.75;0.80;;;;;;;;;;5093071;28;20229;-41
2023/05/01 13:06:02;;;;;;;1.40;0.80;;;;;;;;;;5087573;28;20345;-41
2023/05/01 13:08:31;;;;;;;1.83;1.05;;;;;;;;;;5087973;28;20222;-43
2023/05/01 13:11:01;;;;;;;1.17;0.88;;;;;;;;;;5092370;28;20227;-42
2023/05/01 13:13:30;;;;;;;4.18;0.98;;;;;;;;;;5092772;28;20691;-42
2023/05/01 13:16:09;;;;;;;1.63;1.17;;;;;;;;;;5091571;28;20214;-42
2023/05/01 13:18:47;;;;;;;1.60;1.00;;;;;;;;;;5087680;28;20287;-42
2023/05/01 13:21:17;;;;;;;1.50;0.90;;;;;;;;;;5087090;28;20234;-42
2023/05/01 13:23:52;;;;;;;1.65;1.10;;;;;;;;;;5087694;28;20221;-41
2023/05/01 13:26:34;;;;;;;1.25;1.05;;;;;;;;;;5086103;28;20218;-42
2023/05/01 13:29:04;;;;;;;3.97;1.02;;;;;;;;;;5092655;28;20438;-42
2023/05/01 13:31:31;;;;;;;1.63;0.98;;;;;;;;;;5082843;28;21079;-43
2023/05/01 13:33:59;;;;;;;1.80;0.80;;;;;;;;;;5092549;28;20222;-41
2023/05/01 13:36:31;;;;;;;2.35;1.05;;;;;;;;;;5090594;27;20561;-42
2023/05/01 13:38:59;;;;;;;0.98;0.75;;;;;;;;;;5092414;28;20219;-42
2023/05/01 13:41:27;;;;;;;1.17;1.02;;;;;;;;;;5092195;28;20277;-42
2023/05/01 13:43:55;;;;;;;1.80;1.10;;;;;;;;;;5091773;28;20214;-42
2023/05/01 13:46:23;;;;;;;1.15;0.73;;;;;;;;;;5096757;28;20609;-42
2023/05/01 13:48:51;;;;;;;2.65;1.55;;;;;;;;;;5096145;28;20222;-42
2023/05/01 13:51:23;;;;;;;1.27;1.00;;;;;;;;;;5095874;28;20275;-43
2023/05/01 13:53:54;;;;;;;1.75;1.00;;;;;;;;;;5096300;28;20816;-42
2023/05/01 13:56:21;;;;;;;0.90;0.80;;;;;;;;;;5096852;28;20217;-42
2023/05/01 13:58:49;;;;;;;2.05;1.00;;;;;;;;;;5095575;28;20578;-42
2023/05/01 14:01:19;;;;;;;1.52;1.00;;;;;;;;;;5095962;28;20226;-42
2023/05/01 14:03:47;;;;;;;1.65;0.90;;;;;;;;;;5082668;28;20695;-41
2023/05/01 14:06:17;;;;;;;2.10;1.10;;;;;;;;;;5094566;28;20620;-41
2023/05/01 14:08:47;;;;;;;0.93;0.82;;;;;;;;;;5094488;28;20272;-43
2023/05/01 14:11:14;;;;;;;3.50;1.13;;;;;;;;;;5093855;28;20302;-43
2023/05/01 14:13:43;;;;;;;1.75;1.02;;;;;;;;;;5094109;28;20234;-42
2023/05/01 14:16:21;;;;;;;1.92;0.80;;;;;;;;;;5092355;28;20221;-43
2023/05/01 14:18:48;;;;;;;0.75;0.60;;;;;;;;;;5088211;28;20225;-44
2023/05/01 14:21:16;;;;;;;0.90;0.70;;;;;;;;;;5093801;28;20579;-45
2023/05/01 14:23:44;;;;;;;1.88;1.00;;;;;;;;;;5095603;28;20234;-45
2023/05/01 14:26:16;;;;;;;2.70;1.23;;;;;;;;;;5095845;28;20301;-45
2023/05/01 14:28:45;;;;;;;1.85;1.00;;;;;;;;;;5094920;28;20230;-46
2023/05/01 14:31:27;;;;;;;1.52;1.00;;;;;;;;;;5095613;28;20733;-46
2023/05/01 14:33:57;;;;;;;1.40;0.90;;;;;;;;;;5094250;28;20210;-46
2023/05/01 14:36:27;;;;;;;2.30;1.30;;;;;;;;;;5094538;28;20621;-46
2023/05/01 14:39:01;;;;;;;1.63;0.80;;;;;;;;;;5094943;28;20226;-46
2023/05/01 14:41:29;;;;;;;1.17;0.85;;;;;;;;;;5094129;28;20630;-44
2023/05/01 14:43:56;;;;;;;2.70;0.98;;;;;;;;;;5087831;28;20237;-45
2023/05/01 14:46:34;;;;;;;1.27;0.70;;;;;;;;;;5094420;28;20215;-46
2023/05/01 14:49:02;;;;;;;1.55;1.00;;;;;;;;;;5094848;28;20244;-45
2023/05/01 14:51:30;;;;;;;3.53;0.90;;;;;;;;;;5094698;28;20284;-46
2023/05/01 14:53:58;;;;;;;1.25;0.75;;;;;;;;;;5094796;28;20218;-45
2023/05/01 14:56:26;;;;;;;1.15;0.90;;;;;;;;;;5094669;28;20217;-47
2023/05/01 14:58:53;;;;;;;1.08;0.85;;;;;;;;;;5094292;28;20233;-45